Ovale, California
Current Conditions -  °F | °C
As of 4:45 PM on Wednesday 22 Oct 2014 (Local Time) from KMHR Reporting Station
Scattered Clouds Scattered Clouds  
Wind Chill: 75°   Ceiling: Unl
Heat Index: 75°   Visibility: 10mi
Dew Point: 39°   Wind: 0mph
Humidity: 27%   Direction: NA
Pressure: 29.99"   Gusts: NA
Location:  38.6892°N, 121.219°W
Report Text: KMHR 222345Z 00000KT 10SM SCT200 24/04 A2999
Loading
Personal Weather Stations






























Interactive Weather Map
Tropical Storm Tracking
New forecast layout! Learn more

10-Day Weather Forecast

Advertisements
Track Severe Weather on mobile